Time;durP1;ratioP1;P1;durP2;ratioP2;P2;SDS_P1;SDS_P2;PMS_P1;PMS_P2;Temp;Humidity;BMP_temperature;BMP_pressure;BME280_temperature;BME280_humidity;BME280_pressure;Samples;Min_cycle;Max_cycle;Signal;HPM_P1;HPM_P2
2022/12/07 00:04:05;;;;;;;8.40;5.10;;;;;;;5.20;68.62;98542.27;226234;1237;139490;-63
2022/12/07 00:09:50;;;;;;;9.10;5.40;;;;;;;5.27;68.52;98540.89;226456;1241;138368;-62
2022/12/07 00:15:00;;;;;;;8.30;5.30;;;;;;;5.37;68.72;98542.14;226690;1240;138840;-63
2022/12/07 00:20:13;;;;;;;9.40;5.70;;;;;;;5.41;68.65;98535.45;227360;1247;138507;-64
2022/12/07 00:25:16;;;;;;;8.50;5.50;;;;;;;5.52;68.56;98532.48;226379;1238;138100;-64
2022/12/07 00:30:19;;;;;;;8.10;4.90;;;;;;;5.52;68.55;98529.64;227435;1248;137696;-64
2022/12/07 00:35:23;;;;;;;7.60;4.80;;;;;;;5.49;68.45;98530.14;227215;1232;137917;-63
2022/12/07 00:40:30;;;;;;;6.00;4.40;;;;;;;5.44;68.42;98533.38;226089;1253;137834;-63
2022/12/07 00:45:34;;;;;;;5.00;3.70;;;;;;;5.42;68.47;98525.20;226370;1237;139699;-63
2022/12/07 00:50:39;;;;;;;4.40;3.20;;;;;;;5.36;68.54;98523.89;226523;1255;138441;-62
2022/12/07 00:55:55;;;;;;;6.30;3.50;;;;;;;5.41;68.27;98519.42;227738;1230;139993;-63
2022/12/07 01:01:14;;;;;;;;;;;;;;;;;;;;;
2022/12/07 01:06:32;;;;;;;4.60;3.10;;;;;;;5.50;68.35;98521.48;226333;1244;138607;-63
2022/12/07 01:11:42;;;;;;;4.10;3.10;;;;;;;5.52;68.25;98519.77;226583;1240;137490;-63
2022/12/07 01:16:51;;;;;;;5.60;3.00;;;;;;;5.49;68.24;98516.97;227171;1247;138447;-62
2022/12/07 01:21:59;;;;;;;3.90;3.00;;;;;;;5.45;68.31;98510.45;226046;1257;138313;-63
2022/12/07 01:27:15;;;;;;;5.00;3.10;;;;;;;5.36;68.64;98507.17;226234;1240;138056;-62
2022/12/07 01:32:20;;;;;;;5.00;3.30;;;;;;;5.37;68.81;98508.05;226430;1241;138183;-62
2022/12/07 01:37:24;;;;;;;4.80;3.50;;;;;;;5.33;68.71;98503.11;227632;1234;138441;-64
2022/12/07 01:42:33;;;;;;;4.10;3.00;;;;;;;5.26;68.89;98498.54;226596;1243;138211;-63
2022/12/07 01:47:42;;;;;;;4.60;3.30;;;;;;;5.29;69.17;98497.36;226197;1237;138973;-63
2022/12/07 01:53:02;;;;;;;4.70;3.20;;;;;;;5.38;69.11;98499.02;224434;1237;138005;-62
2022/12/07 01:58:19;;;;;;;4.20;3.20;;;;;;;5.39;68.83;98498.58;224404;1237;137581;-62
2022/12/07 02:03:52;;;;;;;5.30;3.50;;;;;;;5.41;69.00;98499.23;224229;1237;138574;-64
2022/12/07 02:09:01;;;;;;;5.80;3.10;;;;;;;5.40;68.91;98502.23;224417;1227;139025;-64
2022/12/07 02:14:15;;;;;;;4.70;3.10;;;;;;;5.35;68.75;98496.38;224181;1237;137404;-63
2022/12/07 02:19:46;;;;;;;4.50;2.80;;;;;;;5.22;68.92;98490.98;224241;1236;138028;-63
2022/12/07 02:24:55;;;;;;;5.30;3.60;;;;;;;5.09;69.35;98484.95;224176;1228;137524;-63
2022/12/07 02:30:12;;;;;;;3.40;2.90;;;;;;;5.02;69.80;98494.81;224165;1237;138786;-64
2022/12/07 02:36:00;;;;;;;5.70;3.60;;;;;;;4.95;69.81;98495.84;224085;1237;137503;-63
2022/12/07 02:41:38;;;;;;;6.30;3.60;;;;;;;4.91;69.97;98491.77;223981;1237;138999;-63
2022/12/07 02:47:12;;;;;;;4.70;3.80;;;;;;;4.98;70.24;98492.89;223951;1235;138191;-64
2022/12/07 02:52:26;;;;;;;4.20;3.60;;;;;;;5.07;69.98;98490.50;224060;1238;137982;-64
2022/12/07 02:58:08;;;;;;;7.30;4.20;;;;;;;5.10;69.26;98491.09;224163;1227;138404;-64
2022/12/07 03:03:16;;;;;;;4.60;3.70;;;;;;;5.03;69.32;98486.86;224258;1236;138245;-64
2022/12/07 03:09:06;;;;;;;4.60;3.60;;;;;;;5.02;69.17;98479.16;224332;1236;138481;-63
2022/12/07 03:14:48;;;;;;;5.70;3.60;;;;;;;4.93;69.15;98471.50;224226;1237;137702;-63
2022/12/07 03:20:07;;;;;;;5.90;4.00;;;;;;;4.81;69.52;98475.24;224320;1237;138129;-63
2022/12/07 03:25:35;;;;;;;6.20;4.00;;;;;;;4.76;69.64;98476.72;224623;1233;137718;-62
2022/12/07 03:30:55;;;;;;;6.50;4.00;;;;;;;4.69;69.54;98471.95;224259;1237;137609;-63
2022/12/07 03:36:31;;;;;;;5.40;3.80;;;;;;;4.72;69.93;98467.05;224219;1237;138655;-63
2022/12/07 03:42:14;;;;;;;5.90;4.30;;;;;;;4.71;69.99;98461.48;224396;1234;139013;-63
2022/12/07 03:47:44;;;;;;;5.90;4.00;;;;;;;4.77;69.75;98459.80;224233;1235;138435;-63
2022/12/07 03:58:27;;;;;;;6.50;4.50;;;;;;;4.66;70.37;98448.90;221427;1254;655333;-63
2022/12/07 04:04:10;;;;;;;6.20;4.60;;;;;;;4.63;70.88;98445.50;224119;1223;137570;-64
2022/12/07 04:16:14;;;;;;;7.30;5.20;;;;;;;4.59;71.30;98447.29;223335;1240;137082;-63
2022/12/07 04:22:06;;;;;;;8.20;5.80;;;;;;;4.57;71.68;98447.92;223405;1239;137310;-66
2022/12/07 04:27:35;;;;;;;;;;;;;;;4.61;71.71;98442.63;223633;1240;137490;-66
2022/12/07 04:39:34;;;;;;;8.10;5.80;;;;;;;4.76;71.60;98441.19;222481;1242;137488;-66
2022/12/07 04:45:02;;;;;;;10.80;6.40;;;;;;;4.88;71.63;98435.70;222506;1240;137156;-67
2022/12/07 04:50:18;;;;;;;10.40;6.80;;;;;;;4.99;71.17;98434.48;222738;1240;138381;-63
2022/12/07 04:55:36;;;;;;;9.30;6.90;;;;;;;5.02;71.00;98435.55;223073;1249;138027;-63
2022/12/07 05:00:59;;;;;;;11.10;7.00;;;;;;;5.03;70.79;98430.59;223230;1244;137648;-63
2022/12/07 05:06:21;;;;;;;9.30;6.70;;;;;;;4.99;70.79;98436.94;222793;1242;138172;-63
2022/12/07 05:12:47;;;;;;;10.90;7.20;;;;;;;4.90;71.22;98430.36;222620;1240;137748;-61
2022/12/07 05:18:45;;;;;;;9.90;6.50;;;;;;;4.84;71.40;98428.00;223228;1237;137911;-64
2022/12/07 05:25:23;;;;;;;11.90;7.00;;;;;;;4.83;71.32;98433.15;223397;1240;137990;-65
2022/12/07 05:31:11;;;;;;;10.80;6.60;;;;;;;4.75;71.61;98437.56;224188;1237;137679;-61
2022/12/07 05:37:30;;;;;;;8.10;6.80;;;;;;;4.74;71.17;98437.42;223884;1237;138342;-62
2022/12/07 05:43:15;;;;;;;8.70;6.60;;;;;;;4.66;71.10;98442.04;224162;1237;138120;-64
2022/12/07 05:48:31;;;;;;;9.00;5.50;;;;;;;4.66;71.11;98446.98;224579;1234;137365;-63
2022/12/07 06:01:35;;;;;;;28.00;18.50;;;;;;;4.70;71.29;98448.00;224709;1227;137686;-64
2022/12/07 06:06:56;;;;;;;7.80;5.00;;;;;;;4.74;71.68;98448.87;226680;1238;137974;-64
2022/12/07 06:17:54;;;;;;;7.90;5.70;;;;;;;4.85;71.04;98446.06;227009;1234;139394;-65
2022/12/07 06:23:02;;;;;;;61.20;39.50;;;;;;;4.99;71.36;98446.42;227763;1233;137726;-64
2022/12/07 06:28:09;;;;;;;8.70;5.70;;;;;;;5.09;70.81;98445.05;226787;1244;137703;-65
2022/12/07 06:33:14;;;;;;;6.80;5.00;;;;;;;5.05;70.66;98446.50;226989;1249;137801;-64
2022/12/07 06:38:31;;;;;;;7.70;5.50;;;;;;;5.10;70.48;98442.18;227826;1242;138029;-63
2022/12/07 06:43:42;;;;;;;5.70;4.60;;;;;;;5.10;69.93;98444.48;226539;1249;137559;-63
2022/12/07 06:48:51;;;;;;;8.30;5.30;;;;;;;5.04;69.86;98451.27;226864;1238;137684;-62
2022/12/07 06:54:01;;;;;;;53.50;32.90;;;;;;;5.06;70.22;98456.64;227139;1234;137951;-63
2022/12/07 06:59:08;;;;;;;7.10;5.20;;;;;;;5.09;70.48;98460.69;227857;1231;138017;-63
2022/12/07 07:04:23;;;;;;;8.10;5.00;;;;;;;5.12;69.75;98463.17;227018;1241;138151;-63
2022/12/07 07:09:42;;;;;;;8.10;5.40;;;;;;;5.16;69.56;98466.31;226602;1244;138381;-62
2022/12/07 07:15:03;;;;;;;;;;;;;;;;;;;;;
2022/12/07 07:20:13;;;;;;;6.50;5.30;;;;;;;5.27;68.93;98471.77;227068;1241;138090;-64
2022/12/07 07:25:20;;;;;;;10.80;5.60;;;;;;;5.27;69.00;98472.64;226990;1242;137788;-65
2022/12/07 07:30:27;;;;;;;7.00;4.70;;;;;;;5.23;68.63;98468.63;227158;1235;137773;-63
2022/12/07 07:35:36;;;;;;;6.80;5.40;;;;;;;5.13;68.88;98468.42;226895;1249;138531;-62
2022/12/07 07:40:49;;;;;;;9.40;6.10;;;;;;;4.99;68.94;98473.16;226706;1234;137544;-63
2022/12/07 07:47:03;;;;;;;7.00;5.30;;;;;;;4.92;69.09;98475.05;226624;1237;138726;-62
2022/12/07 07:52:30;;;;;;;8.50;5.60;;;;;;;5.06;71.07;98471.05;227071;1239;137455;-65
2022/12/07 07:58:10;;;;;;;36.00;23.30;;;;;;;5.15;69.80;98474.48;226912;1234;139188;-66
2022/12/07 08:03:32;;;;;;;10.70;6.70;;;;;;;5.23;69.87;98479.52;226316;1247;138631;-65
2022/12/07 08:08:42;;;;;;;10.70;6.90;;;;;;;5.23;69.44;98478.31;227987;1227;138861;-63
2022/12/07 08:14:04;;;;;;;11.20;7.70;;;;;;;5.22;68.90;98481.30;226618;1234;139064;-64
2022/12/07 08:19:11;;;;;;;10.00;7.00;;;;;;;5.21;69.24;98492.11;227735;1229;137741;-64
2022/12/07 08:28:33;;;;;;;11.00;6.80;;;;;;;5.11;69.47;98496.98;221350;1255;635352;-62
2022/12/07 08:33:40;;;;;;;9.90;5.10;;;;;;;5.02;69.09;98501.15;223000;1233;137790;-63
2022/12/07 08:38:50;;;;;;;7.60;4.70;;;;;;;4.99;69.62;98503.91;223624;1239;137326;-63
2022/12/07 08:44:22;;;;;;;9.20;5.20;;;;;;;5.01;69.87;98506.28;225321;1239;137982;-63
2022/12/07 08:49:41;;;;;;;8.90;5.10;;;;;;;5.08;69.82;98509.61;225267;1246;138521;-64
2022/12/07 08:54:59;;;;;;;6.90;5.10;;;;;;;5.12;69.62;98510.11;225198;1245;137178;-63
2022/12/07 09:01:10;;;;;;;9.50;6.10;;;;;;;5.11;69.64;98510.36;225282;1255;136751;-64
2022/12/07 09:06:49;;;;;;;110.20;64.40;;;;;;;5.11;69.55;98514.43;225177;1245;137656;-64
2022/12/07 09:11:53;;;;;;;11.00;6.40;;;;;;;5.13;69.72;98508.00;225307;1248;138343;-66
2022/12/07 09:17:11;;;;;;;10.70;5.60;;;;;;;5.05;69.34;98517.84;226953;1238;138841;-66
2022/12/07 09:22:22;;;;;;;8.40;6.10;;;;;;;5.03;69.36;98517.61;226749;1226;138515;-63
2022/12/07 09:28:07;;;;;;;9.10;6.40;;;;;;;5.01;69.38;98517.17;226670;1238;138038;-65
2022/12/07 09:33:26;;;;;;;9.50;6.50;;;;;;;5.04;69.74;98511.92;226766;1249;137263;-65
2022/12/07 09:38:29;;;;;;;9.40;6.30;;;;;;;5.12;69.69;98507.32;226649;1244;137935;-65
2022/12/07 09:43:35;;;;;;;11.10;6.70;;;;;;;5.12;69.51;98506.26;226560;1236;138316;-67
2022/12/07 09:48:39;;;;;;;10.00;5.70;;;;;;;5.09;69.59;98507.64;226507;1244;137778;-67
2022/12/07 09:53:43;;;;;;;9.10;6.00;;;;;;;5.12;69.58;98500.77;227548;1244;138567;-66
2022/12/07 09:58:48;;;;;;;166.80;104.90;;;;;;;5.22;69.58;98500.50;226582;1244;138365;-67
2022/12/07 10:03:54;;;;;;;9.80;6.40;;;;;;;5.29;69.69;98499.63;226427;1241;138493;-66
2022/12/07 10:08:57;;;;;;;89.60;54.70;;;;;;;5.29;69.93;98497.55;227573;1237;138395;-71
2022/12/07 10:14:12;;;;;;;8.10;6.10;;;;;;;5.33;69.71;98497.67;227865;1236;137663;-68
2022/12/07 10:19:20;;;;;;;8.40;5.00;;;;;;;5.32;69.23;98491.59;226992;1240;137941;-66
2022/12/07 10:24:23;;;;;;;7.20;5.60;;;;;;;5.29;69.25;98487.14;226876;1244;137247;-66
2022/12/07 10:29:32;;;;;;;7.80;5.00;;;;;;;5.34;69.56;98483.02;227128;1244;137811;-65
2022/12/07 10:34:37;;;;;;;6.60;4.60;;;;;;;5.30;69.64;98479.02;227111;1234;138115;-66
2022/12/07 10:39:49;;;;;;;9.10;5.10;;;;;;;5.26;69.82;98473.56;227225;1237;139503;-66
2022/12/07 10:45:17;;;;;;;5.80;4.70;;;;;;;5.39;69.74;98470.48;227050;1241;138207;-65
2022/12/07 10:50:41;;;;;;;8.30;5.40;;;;;;;5.53;69.62;98463.77;227230;1238;138305;-66
2022/12/07 10:55:47;;;;;;;10.10;5.60;;;;;;;5.59;69.52;98451.51;227859;1235;137988;-67
2022/12/07 11:01:05;;;;;;;9.90;6.00;;;;;;;5.60;69.24;98454.64;227059;1234;137640;-66
2022/12/07 11:06:14;;;;;;;10.10;6.70;;;;;;;5.58;69.40;98447.01;227143;1235;137721;-65
2022/12/07 11:11:39;;;;;;;12.20;7.10;;;;;;;5.63;69.39;98438.48;227064;1240;137928;-66
2022/12/07 11:17:06;;;;;;;9.20;5.50;;;;;;;5.66;69.21;98437.79;227063;1249;138720;-68
2022/12/07 11:22:18;;;;;;;8.50;5.30;;;;;;;5.73;68.92;98438.63;227101;1237;138248;-66
2022/12/07 11:27:47;;;;;;;6.80;4.80;;;;;;;5.85;68.59;98434.83;226949;1241;138028;-66
2022/12/07 11:32:56;;;;;;;8.80;4.80;;;;;;;5.97;68.52;98436.71;226988;1238;138044;-66
2022/12/07 11:38:08;;;;;;;8.20;4.80;;;;;;;5.96;68.12;98430.08;227052;1241;137807;-66
2022/12/07 11:43:56;;;;;;;7.10;5.20;;;;;;;5.84;68.02;98419.59;226972;1241;137652;-66
2022/12/07 11:49:21;;;;;;;7.90;5.20;;;;;;;5.91;68.41;98418.52;227412;1246;137491;-66
2022/12/07 11:54:50;;;;;;;7.90;4.40;;;;;;;5.96;67.75;98414.05;225649;1224;137862;-65
2022/12/07 12:08:50;;;;;;;8.60;4.10;;;;;;;6.04;66.38;98407.81;225205;1237;138010;-65
2022/12/07 12:15:15;;;;;;;7.00;4.20;;;;;;;6.13;66.44;98404.87;224095;1240;138708;-64
2022/12/07 12:24:54;;;;;;;7.00;4.70;;;;;;;6.20;65.78;98402.38;221523;1248;654114;-65
2022/12/07 12:31:01;;;;;;;;;;;;;;;;;;;;;
2022/12/07 12:36:45;;;;;;;6.80;4.00;;;;;;;6.24;64.44;98387.88;224983;1243;138244;-64
2022/12/07 12:47:04;;;;;;;7.30;4.40;;;;;;;6.26;64.07;98380.35;225643;1242;137716;-64
2022/12/07 12:52:14;;;;;;;7.00;3.80;;;;;;;6.25;63.37;98383.95;225288;1248;137133;-65
2022/12/07 12:57:32;;;;;;;6.00;4.20;;;;;;;6.24;63.79;98378.39;225285;1240;137902;-64
2022/12/07 13:02:52;;;;;;;6.60;4.60;;;;;;;6.27;63.35;98379.98;225322;1250;137017;-64
2022/12/07 13:08:18;;;;;;;6.10;4.00;;;;;;;6.24;62.45;98389.84;225326;1240;137497;-64
2022/12/07 13:13:31;;;;;;;5.50;3.80;;;;;;;6.17;61.69;98388.46;225257;1240;138444;-63
2022/12/07 13:18:37;;;;;;;5.90;3.40;;;;;;;6.08;61.63;98392.99;225317;1254;138633;-64
2022/12/07 13:23:45;;;;;;;5.30;3.20;;;;;;;6.04;61.28;98387.36;225211;1255;138004;-65
2022/12/07 13:29:11;;;;;;;4.50;3.00;;;;;;;6.07;61.28;98382.98;225221;1240;138041;-63
2022/12/07 13:34:31;;;;;;;4.00;3.00;;;;;;;6.03;60.28;98385.51;225286;1248;137582;-63
2022/12/07 13:39:47;;;;;;;5.40;3.60;;;;;;;5.97;60.05;98388.84;225262;1240;137386;-66
2022/12/07 13:45:01;;;;;;;4.00;3.10;;;;;;;5.92;60.57;98393.11;225249;1233;138050;-66
2022/12/07 13:50:35;;;;;;;4.90;3.10;;;;;;;5.88;59.88;98404.23;224956;1240;137411;-67
2022/12/07 13:55:46;;;;;;;4.80;2.80;;;;;;;5.82;59.58;98412.30;223533;1246;138226;-65
2022/12/07 14:01:06;;;;;;;5.00;3.50;;;;;;;5.75;59.82;98407.92;222498;1239;138105;-67
2022/12/07 14:06:25;;;;;;;5.50;3.50;;;;;;;5.74;60.66;98410.05;222695;1234;137900;-67
2022/12/07 14:12:03;;;;;;;6.00;3.70;;;;;;;5.72;60.54;98413.67;222759;1242;137656;-66
2022/12/07 14:17:33;;;;;;;7.90;4.60;;;;;;;5.69;60.62;98411.36;222555;1240;139365;-64
2022/12/07 14:23:39;;;;;;;5.90;4.20;;;;;;;5.68;60.70;98413.04;222520;1241;137146;-65
2022/12/07 14:29:29;;;;;;;7.80;4.60;;;;;;;5.61;60.73;98407.76;222389;1241;137525;-65
2022/12/07 14:34:34;;;;;;;7.30;4.40;;;;;;;5.56;60.63;98412.80;222475;1242;137266;-67
2022/12/07 14:39:38;;;;;;;6.70;4.50;;;;;;;5.55;60.53;98408.95;222495;1235;137660;-66
2022/12/07 14:44:43;;;;;;;10.30;5.00;;;;;;;5.54;60.48;98416.77;223395;1239;137871;-67
2022/12/07 14:49:47;;;;;;;6.50;4.70;;;;;;;5.50;60.12;98417.13;223171;1238;137632;-66
2022/12/07 14:55:05;;;;;;;9.00;5.10;;;;;;;5.48;60.22;98417.60;223534;1238;137234;-66
2022/12/07 15:00:48;;;;;;;7.30;4.60;;;;;;;5.47;60.63;98422.20;223481;1232;137494;-64
2022/12/07 15:06:52;;;;;;;6.90;5.00;;;;;;;5.46;60.16;98417.13;223762;1236;137646;-64
2022/12/07 15:20:31;;;;;;;6.20;5.10;;;;;;;5.48;60.69;98426.56;222744;1236;137509;-64
2022/12/07 15:26:41;;;;;;;13.10;5.70;;;;;;;5.50;60.60;98432.27;222922;1241;136876;-64
2022/12/07 15:32:14;;;;;;;8.60;5.80;;;;;;;5.54;60.69;98431.15;223139;1238;137761;-65
2022/12/07 15:37:19;;;;;;;8.40;5.10;;;;;;;5.57;60.40;98435.94;223489;1232;137664;-66
2022/12/07 15:42:38;;;;;;;7.40;5.50;;;;;;;5.58;60.59;98442.76;223555;1237;138293;-64
2022/12/07 15:54:48;;;;;;;9.60;6.50;;;;;;;5.52;60.71;98461.01;223464;1232;137771;-66
2022/12/07 16:00:23;;;;;;;;;;;;;;;5.50;61.25;98459.89;223694;1238;138026;-64
2022/12/07 16:12:25;;;;;;;10.10;7.10;;;;;;;5.50;61.99;98469.06;224176;1237;137228;-65
2022/12/07 16:17:55;;;;;;;11.30;7.40;;;;;;;5.49;62.09;98466.27;223373;1238;137882;-65
2022/12/07 16:23:02;;;;;;;10.80;7.50;;;;;;;5.50;61.94;98467.79;223702;1239;137886;-65
2022/12/07 16:28:39;;;;;;;10.40;6.80;;;;;;;5.52;62.23;98467.88;223612;1238;137981;-65
2022/12/07 16:34:41;;;;;;;12.60;7.70;;;;;;;5.54;62.12;98466.75;223779;1236;138296;-65
2022/12/07 16:39:45;;;;;;;17.30;11.50;;;;;;;5.53;62.11;98462.56;223503;1239;138320;-67
2022/12/07 16:45:11;;;;;;;12.50;8.10;;;;;;;5.55;62.23;98465.13;223732;1238;138388;-68
2022/12/07 16:50:54;;;;;;;;;;;;;;;;;;;;;
2022/12/07 16:56:57;;;;;;;12.40;7.50;;;;;;;5.58;61.42;98464.25;223955;1236;137172;-64
2022/12/07 17:03:18;;;;;;;28.70;17.40;;;;;;;5.58;61.31;98471.09;223645;1240;137796;-66
2022/12/07 17:09:08;;;;;;;11.10;6.80;;;;;;;5.58;61.20;98474.41;223556;1239;137862;-65
2022/12/07 17:20:27;;;;;;;12.20;6.90;;;;;;;5.54;60.15;98470.61;223785;1239;138668;-64
2022/12/07 17:25:37;;;;;;;13.50;7.10;;;;;;;5.51;60.08;98474.10;224113;1237;137264;-67
2022/12/07 17:45:09;;;;;;;12.60;7.00;;;;;;;5.37;59.64;98483.56;223203;1236;138209;-65
2022/12/07 17:54:58;;;;;;;11.40;6.80;;;;;;;5.29;60.11;98488.90;221255;1253;660120;-64
2022/12/07 18:07:58;;;;;;;11.30;6.50;;;;;;;5.30;60.40;98486.21;223500;1240;138567;-65
2022/12/07 18:27:40;;;;;;;13.90;7.20;;;;;;;5.29;59.38;98477.11;222452;1239;137297;-66
2022/12/07 18:33:04;;;;;;;15.10;7.40;;;;;;;5.33;59.94;98474.82;223143;1240;138727;-66
2022/12/07 18:38:18;;;;;;;13.20;6.80;;;;;;;5.35;59.60;98481.56;223079;1236;137328;-65
2022/12/07 18:44:35;;;;;;;14.00;6.60;;;;;;;5.34;59.26;98481.65;223163;1240;137498;-64
2022/12/07 18:49:39;;;;;;;11.80;6.20;;;;;;;5.32;59.31;98475.19;222900;1239;138040;-65
2022/12/07 18:55:15;;;;;;;10.70;6.40;;;;;;;5.35;59.80;98477.14;223100;1240;137242;-66
2022/12/07 19:07:20;;;;;;;;;;;;;;;;;;;;;
2022/12/07 19:12:48;;;;;;;11.10;6.20;;;;;;;5.33;59.03;98492.20;222421;1243;137579;-67
2022/12/07 19:17:53;;;;;;;11.40;6.50;;;;;;;5.34;59.18;98492.15;222996;1241;137746;-67
2022/12/07 19:22:57;;;;;;;9.50;6.00;;;;;;;5.33;58.94;98492.91;222750;1240;137655;-67
2022/12/07 19:28:01;;;;;;;13.40;7.30;;;;;;;5.28;59.18;98490.89;223054;1239;138158;-67
2022/12/07 19:33:05;;;;;;;14.10;6.90;;;;;;;5.30;59.15;98484.64;225038;1233;138212;-67
2022/12/07 19:38:42;;;;;;;17.80;7.50;;;;;;;5.27;58.71;98483.89;224272;1234;138253;-65
2022/12/07 19:43:46;;;;;;;35.80;20.70;;;;;;;5.30;59.54;98485.67;224305;1237;138310;-68
2022/12/07 19:48:49;;;;;;;12.10;6.80;;;;;;;5.36;58.95;98485.41;224121;1236;137995;-66
2022/12/07 19:53:57;;;;;;;9.60;6.20;;;;;;;5.35;58.67;98483.66;224211;1232;137474;-64
2022/12/07 19:59:01;;;;;;;10.20;6.10;;;;;;;5.38;58.49;98494.27;224374;1237;138357;-68
2022/12/07 20:04:11;;;;;;;9.50;6.10;;;;;;;5.41;58.08;98490.57;224346;1227;137661;-69
2022/12/07 20:09:17;;;;;;;13.80;6.00;;;;;;;5.42;58.07;98489.11;224550;1235;137331;-69
2022/12/07 20:14:21;;;;;;;12.00;5.80;;;;;;;5.45;57.70;98492.70;224678;1237;137587;-68
2022/12/07 20:19:24;;;;;;;14.80;6.70;;;;;;;5.43;57.82;98492.59;224360;1233;138115;-66
2022/12/07 20:24:28;;;;;;;15.70;6.50;;;;;;;5.49;57.82;98496.17;225159;1237;137634;-67
2022/12/07 20:29:33;;;;;;;12.30;6.70;;;;;;;5.52;57.54;98492.71;224820;1233;137515;-67
2022/12/07 20:34:37;;;;;;;15.00;8.60;;;;;;;5.52;57.56;98497.45;224671;1227;137596;-68
2022/12/07 20:39:41;;;;;;;13.10;8.00;;;;;;;5.51;57.93;98500.65;224349;1236;137901;-67
2022/12/07 20:44:44;;;;;;;18.30;9.90;;;;;;;5.50;57.91;98503.16;224377;1236;138574;-67
2022/12/07 20:49:48;;;;;;;19.00;10.80;;;;;;;5.52;57.78;98505.16;224371;1237;138579;-68
2022/12/07 20:54:51;;;;;;;20.00;10.50;;;;;;;5.55;58.20;98509.08;224041;1235;137633;-67
2022/12/07 20:59:54;;;;;;;21.60;10.00;;;;;;;5.57;57.98;98509.14;224319;1236;137746;-68
2022/12/07 21:05:01;;;;;;;17.10;9.50;;;;;;;5.56;58.24;98508.17;224763;1231;137897;-67
2022/12/07 21:10:07;;;;;;;15.60;9.50;;;;;;;5.57;58.39;98507.37;224980;1226;137745;-67
2022/12/07 21:15:12;;;;;;;16.80;8.80;;;;;;;5.59;58.00;98504.33;225139;1233;137433;-65
2022/12/07 21:20:17;;;;;;;14.40;8.50;;;;;;;5.59;58.27;98504.98;225082;1237;138288;-69
2022/12/07 21:25:21;;;;;;;16.00;9.10;;;;;;;5.60;57.95;98501.61;224648;1237;137807;-66
2022/12/07 21:30:25;;;;;;;15.30;8.30;;;;;;;5.61;57.81;98504.52;225109;1227;138206;-69
2022/12/07 21:35:30;;;;;;;15.80;9.00;;;;;;;5.59;57.89;98506.08;224971;1226;137987;-68
2022/12/07 21:40:34;;;;;;;17.50;8.50;;;;;;;5.59;57.98;98508.88;225095;1226;138398;-67
2022/12/07 21:45:38;;;;;;;13.60;7.90;;;;;;;5.62;57.80;98513.15;225192;1226;137797;-66
2022/12/07 21:50:42;;;;;;;14.90;8.00;;;;;;;5.60;57.71;98516.23;224772;1237;139646;-70
2022/12/07 21:55:45;;;;;;;16.00;8.40;;;;;;;5.58;57.70;98515.97;224766;1233;138432;-67
2022/12/07 22:00:48;;;;;;;12.80;7.80;;;;;;;5.60;58.04;98519.70;225051;1237;137914;-67
2022/12/07 22:06:00;;;;;;;17.80;8.20;;;;;;;5.61;57.71;98518.28;224659;1236;138026;-68
2022/12/07 22:11:05;;;;;;;15.70;8.00;;;;;;;5.60;57.77;98520.44;224593;1236;138035;-69
2022/12/07 22:16:09;;;;;;;15.60;7.70;;;;;;;5.58;57.93;98522.32;224166;1235;137434;-67
2022/12/07 22:21:13;;;;;;;16.10;7.60;;;;;;;5.59;58.11;98528.23;224269;1235;137989;-67
2022/12/07 22:26:18;;;;;;;13.70;7.80;;;;;;;5.60;57.93;98529.56;224357;1235;138033;-67
2022/12/07 22:31:28;;;;;;;15.30;7.00;;;;;;;5.59;57.82;98525.61;224162;1237;137952;-65
2022/12/07 22:36:44;;;;;;;12.90;7.10;;;;;;;5.58;57.97;98524.04;224394;1236;138815;-66
2022/12/07 22:42:10;;;;;;;14.00;7.40;;;;;;;5.60;58.16;98522.72;224602;1236;138303;-65
2022/12/07 22:48:20;;;;;;;11.40;6.70;;;;;;;5.60;58.17;98521.14;224857;1229;138171;-66
2022/12/07 22:54:35;;;;;;;11.60;6.20;;;;;;;5.61;57.93;98516.01;225119;1236;137718;-66
2022/12/07 23:01:32;;;;;;;9.20;5.50;;;;;;;5.61;58.00;98518.46;225591;1230;112808;-67
2022/12/07 23:06:38;;;;;;;10.00;5.80;;;;;;;5.65;58.00;98524.42;225132;1233;139320;-65
2022/12/07 23:25:20;;;;;;;9.80;5.20;;;;;;;5.69;57.94;98517.52;221590;1253;638073;-64
2022/12/07 23:31:15;;;;;;;9.80;5.00;;;;;;;5.67;57.47;98513.23;223241;1245;136527;-66
2022/12/07 23:36:45;;;;;;;;;;;;;;;;;;;;;
2022/12/07 23:48:33;;;;;;;9.30;5.00;;;;;;;5.70;57.08;98526.95;221389;1252;636224;-68
2022/12/07 23:54:50;;;;;;;8.80;4.70;;;;;;;5.72;56.88;98528.64;223043;1239;136804;-70
